ASA1654 KSEA-KLAX
Flight info
| Callsign | ASA1654 |
|---|---|
| Flight time | N/A |
| Altitude | 39000 |
| Route | SUMMA2 SUMMA DCT JINMO Q7 JAGWA DCT BURGL IRNMN2 |
| Aircraft | B737/M-SDE2E3FGHIRWXY/LB1 |
Departure
| Time | 2026-05-07 17:19 |
|---|---|
| Airport | Seattle–Tacoma International Airport (KSEA) |
Arrival
| Time | N/A |
|---|---|
| Airport | Los Angeles International Airport (KLAX) |
| Time | Latitude | Longitude | Altitude | Speed | Heading |
|---|---|---|---|---|---|
| 2026-05-07 17:03 | 47.44146 | -122.30140 | 395 ft | 0 kts | 46° |
| 2026-05-07 17:09 | 47.44140 | -122.30149 | 391 ft | 4 kts | 47° |
| 2026-05-07 17:09 | 47.44122 | -122.30179 | 396 ft | 4 kts | 46° |
| 2026-05-07 17:10 | 47.44102 | -122.30205 | 393 ft | 4 kts | 28° |
| 2026-05-07 17:10 | 47.44083 | -122.30215 | 395 ft | 4 kts | 13° |
| 2026-05-07 17:10 | 47.44057 | -122.30224 | 396 ft | 4 kts | 18° |
| 2026-05-07 17:10 | 47.44034 | -122.30242 | 393 ft | 4 kts | 48° |
| 2026-05-07 17:11 | 47.44029 | -122.30250 | 394 ft | 1 kts | 56° |
| 2026-05-07 17:12 | 47.44030 | -122.30248 | 395 ft | 0 kts | 60° |
| 2026-05-07 17:12 | 47.44028 | -122.30235 | 394 ft | 6 kts | 104° |
| 2026-05-07 17:13 | 47.44004 | -122.30204 | 395 ft | 2 kts | 187° |
| 2026-05-07 17:13 | 47.43999 | -122.30210 | 395 ft | 1 kts | 218° |
| 2026-05-07 17:13 | 47.43995 | -122.30222 | 394 ft | 5 kts | 238° |
| 2026-05-07 17:13 | 47.43982 | -122.30306 | 396 ft | 14 kts | 261° |
| 2026-05-07 17:14 | 47.43975 | -122.30494 | 396 ft | 20 kts | 271° |
| 2026-05-07 17:14 | 47.44037 | -122.30629 | 390 ft | 18 kts | 359° |
| 2026-05-07 17:14 | 47.44165 | -122.30627 | 392 ft | 19 kts | 0° |
| 2026-05-07 17:14 | 47.44300 | -122.30627 | 395 ft | 20 kts | 1° |
| 2026-05-07 17:15 | 47.44444 | -122.30625 | 395 ft | 21 kts | 0° |
| 2026-05-07 17:15 | 47.44594 | -122.30624 | 396 ft | 22 kts | 0° |
| 2026-05-07 17:15 | 47.44751 | -122.30623 | 392 ft | 23 kts | 0° |
| 2026-05-07 17:15 | 47.44915 | -122.30621 | 396 ft | 24 kts | 0° |
| 2026-05-07 17:16 | 47.45086 | -122.30619 | 396 ft | 25 kts | 360° |
| 2026-05-07 17:16 | 47.45263 | -122.30618 | 396 ft | 26 kts | 0° |
| 2026-05-07 17:16 | 47.45445 | -122.30617 | 393 ft | 27 kts | 0° |
| 2026-05-07 17:16 | 47.45633 | -122.30616 | 395 ft | 27 kts | 0° |
| 2026-05-07 17:17 | 47.45826 | -122.30617 | 391 ft | 28 kts | 360° |
| 2026-05-07 17:17 | 47.46024 | -122.30612 | 395 ft | 29 kts | 0° |
| 2026-05-07 17:17 | 47.46219 | -122.30611 | 392 ft | 20 kts | 0° |
| 2026-05-07 17:17 | 47.46292 | -122.30717 | 393 ft | 14 kts | 273° |
| 2026-05-07 17:18 | 47.46259 | -122.30784 | 391 ft | 6 kts | 180° |
| 2026-05-07 17:18 | 47.46175 | -122.30784 | 395 ft | 32 kts | 180° |
| 2026-05-07 17:18 | 47.45677 | -122.30784 | 391 ft | 109 kts | 180° |
| 2026-05-07 17:18 | 47.44699 | -122.30788 | 422 ft | 167 kts | 179° |
| 2026-05-07 17:19 | 47.43481 | -122.30758 | 1006 ft | 181 kts | 179° |
| 2026-05-07 17:19 | 47.42197 | -122.30780 | 1867 ft | 188 kts | 190° |
| 2026-05-07 17:19 | 47.40968 | -122.31393 | 2691 ft | 185 kts | 204° |
| 2026-05-07 17:19 | 47.39780 | -122.32138 | 3269 ft | 196 kts | 192° |
| 2026-05-07 17:20 | 47.38359 | -122.32218 | 3642 ft | 215 kts | 176° |
| 2026-05-07 17:20 | 47.36769 | -122.32088 | 3950 ft | 243 kts | 176° |
| 2026-05-07 17:20 | 47.35013 | -122.31933 | 4472 ft | 262 kts | 176° |
| 2026-05-07 17:20 | 47.33138 | -122.31757 | 5116 ft | 275 kts | 176° |
| 2026-05-07 17:21 | 47.31229 | -122.31571 | 6025 ft | 277 kts | 176° |
| 2026-05-07 17:21 | 47.29291 | -122.31379 | 6831 ft | 281 kts | 177° |
| 2026-05-07 17:21 | 47.27329 | -122.31181 | 7652 ft | 284 kts | 177° |
| 2026-05-07 17:21 | 47.25339 | -122.30978 | 8452 ft | 289 kts | 176° |
| 2026-05-07 17:22 | 47.23345 | -122.30456 | 9229 ft | 294 kts | 163° |
| 2026-05-07 17:22 | 47.21386 | -122.29532 | 10034 ft | 299 kts | 169° |
| 2026-05-07 17:22 | 47.19283 | -122.29095 | 10484 ft | 314 kts | 174° |
| 2026-05-07 17:22 | 47.17044 | -122.28681 | 10783 ft | 333 kts | 173° |
| 2026-05-07 17:23 | 47.14700 | -122.28225 | 11237 ft | 346 kts | 173° |
| 2026-05-07 17:23 | 47.12311 | -122.27746 | 11955 ft | 348 kts | 173° |
| 2026-05-07 17:23 | 47.09893 | -122.27255 | 12655 ft | 352 kts | 173° |
| 2026-05-07 17:23 | 47.07450 | -122.26756 | 13371 ft | 356 kts | 173° |
| 2026-05-07 17:24 | 47.04985 | -122.26252 | 14068 ft | 360 kts | 173° |
| 2026-05-07 17:24 | 47.02490 | -122.25740 | 14682 ft | 364 kts | 173° |
| 2026-05-07 17:24 | 46.99973 | -122.25225 | 15318 ft | 367 kts | 173° |
| 2026-05-07 17:24 | 46.97430 | -122.24706 | 15939 ft | 371 kts | 173° |
| 2026-05-07 17:25 | 46.94860 | -122.24181 | 16551 ft | 375 kts | 173° |
| 2026-05-07 17:25 | 46.92264 | -122.23652 | 17145 ft | 379 kts | 173° |
| 2026-05-07 17:25 | 46.89643 | -122.23117 | 17744 ft | 382 kts | 173° |
| 2026-05-07 17:25 | 46.86996 | -122.22578 | 18306 ft | 386 kts | 173° |
| 2026-05-07 17:26 | 46.84325 | -122.22035 | 18832 ft | 389 kts | 173° |
| 2026-05-07 17:26 | 46.81625 | -122.21487 | 19264 ft | 394 kts | 173° |
| 2026-05-07 17:26 | 46.78910 | -122.20936 | 19824 ft | 395 kts | 173° |
| 2026-05-07 17:26 | 46.76171 | -122.20381 | 20281 ft | 399 kts | 173° |
| 2026-05-07 17:27 | 46.73411 | -122.19822 | 20790 ft | 402 kts | 173° |
| 2026-05-07 17:27 | 46.70626 | -122.19258 | 21261 ft | 405 kts | 173° |
| 2026-05-07 17:27 | 46.67823 | -122.18691 | 21717 ft | 409 kts | 173° |
| 2026-05-07 17:27 | 46.64994 | -122.18120 | 22189 ft | 412 kts | 173° |
| 2026-05-07 17:28 | 46.62182 | -122.17553 | 22650 ft | 415 kts | 173° |
| 2026-05-07 17:28 | 46.59304 | -122.16974 | 23067 ft | 419 kts | 173° |
| 2026-05-07 17:28 | 46.56397 | -122.16388 | 23480 ft | 424 kts | 174° |
| 2026-05-07 17:28 | 46.53471 | -122.15800 | 23900 ft | 426 kts | 174° |
| 2026-05-07 17:29 | 46.50522 | -122.15208 | 24265 ft | 429 kts | 174° |
| 2026-05-07 17:29 | 46.47557 | -122.14614 | 24642 ft | 432 kts | 174° |
| 2026-05-07 17:29 | 46.44575 | -122.14016 | 25023 ft | 434 kts | 174° |
| 2026-05-07 17:29 | 46.41570 | -122.13415 | 25382 ft | 437 kts | 174° |
| 2026-05-07 17:30 | 46.38550 | -122.12811 | 25753 ft | 439 kts | 175° |
| 2026-05-07 17:30 | 46.35525 | -122.12099 | 26132 ft | 442 kts | 173° |
| 2026-05-07 17:30 | 46.32480 | -122.11351 | 26461 ft | 445 kts | 173° |
| 2026-05-07 17:30 | 46.29417 | -122.10615 | 26853 ft | 446 kts | 173° |
| 2026-05-07 17:31 | 46.26347 | -122.09877 | 27186 ft | 450 kts | 174° |
| 2026-05-07 17:31 | 46.23253 | -122.09138 | 27509 ft | 452 kts | 174° |
| 2026-05-07 17:31 | 46.20144 | -122.08394 | 27848 ft | 454 kts | 174° |
| 2026-05-07 17:31 | 46.17019 | -122.07647 | 28173 ft | 456 kts | 174° |
| 2026-05-07 17:32 | 46.13875 | -122.06897 | 28463 ft | 460 kts | 174° |
| 2026-05-07 17:32 | 46.10711 | -122.06143 | 28806 ft | 462 kts | 174° |
| 2026-05-07 17:32 | 46.07533 | -122.05386 | 29118 ft | 464 kts | 174° |
| 2026-05-07 17:32 | 46.05423 | -122.04885 | 29321 ft | 465 kts | 174° |
| 2026-05-07 17:33 | 46.01137 | -122.03867 | 29754 ft | 468 kts | 174° |
| 2026-05-07 17:33 | 45.97915 | -122.03102 | 30038 ft | 470 kts | 174° |
| 2026-05-07 17:33 | 45.94679 | -122.02335 | 30315 ft | 473 kts | 174° |
| 2026-05-07 17:33 | 45.91426 | -122.01565 | 30524 ft | 475 kts | 174° |
| 2026-05-07 17:34 | 45.88167 | -122.00793 | 30875 ft | 474 kts | 174° |
| 2026-05-07 17:34 | 45.84901 | -122.00024 | 31143 ft | 476 kts | 174° |
| 2026-05-07 17:34 | 45.81632 | -121.99253 | 31398 ft | 478 kts | 174° |
| 2026-05-07 17:34 | 45.78345 | -121.98479 | 31659 ft | 479 kts | 174° |
| 2026-05-07 17:35 | 45.75048 | -121.97703 | 31885 ft | 481 kts | 174° |
| 2026-05-07 17:35 | 45.71735 | -121.96926 | 32102 ft | 483 kts | 174° |
| 2026-05-07 17:35 | 45.68415 | -121.96146 | 32368 ft | 484 kts | 174° |
| 2026-05-07 17:35 | 45.65096 | -121.95369 | 32697 ft | 483 kts | 174° |
| 2026-05-07 17:36 | 45.61780 | -121.94591 | 33055 ft | 482 kts | 174° |
| 2026-05-07 17:36 | 45.58475 | -121.93816 | 33430 ft | 481 kts | 175° |
| 2026-05-07 17:36 | 45.55177 | -121.93046 | 33803 ft | 480 kts | 175° |
| 2026-05-07 17:36 | 45.51887 | -121.92280 | 34122 ft | 479 kts | 175° |
| 2026-05-07 17:37 | 45.45312 | -121.90748 | 34143 ft | 476 kts | 175° |
| 2026-05-07 17:37 | 45.38804 | -121.89236 | 34147 ft | 473 kts | 175° |
| 2026-05-07 17:38 | 45.32302 | -121.87729 | 34357 ft | 474 kts | 175° |
| 2026-05-07 17:38 | 45.29048 | -121.86976 | 34592 ft | 474 kts | 175° |
| 2026-05-07 17:38 | 45.25791 | -121.86224 | 34853 ft | 473 kts | 175° |
| 2026-05-07 17:39 | 45.22542 | -121.85473 | 35089 ft | 473 kts | 175° |
| 2026-05-07 17:39 | 45.19297 | -121.84725 | 35323 ft | 473 kts | 175° |
| 2026-05-07 17:39 | 45.16046 | -121.83976 | 35554 ft | 473 kts | 175° |
| 2026-05-07 17:39 | 45.12800 | -121.83231 | 35751 ft | 473 kts | 175° |
| 2026-05-07 17:40 | 45.09555 | -121.82486 | 35929 ft | 473 kts | 175° |
| 2026-05-07 17:40 | 45.06312 | -121.81740 | 36137 ft | 472 kts | 175° |
| 2026-05-07 17:40 | 44.99826 | -121.80253 | 36116 ft | 470 kts | 175° |
| 2026-05-07 17:41 | 44.93369 | -121.78777 | 36117 ft | 471 kts | 175° |
| 2026-05-07 17:41 | 44.86903 | -121.77303 | 36116 ft | 471 kts | 175° |
| 2026-05-07 17:42 | 44.80427 | -121.75828 | 36116 ft | 472 kts | 175° |
| 2026-05-07 17:42 | 44.75043 | -121.74606 | 36091 ft | 471 kts | 175° |
| 2026-05-07 17:43 | 44.68560 | -121.73137 | 36091 ft | 472 kts | 174° |
| 2026-05-07 17:43 | 44.62076 | -121.71670 | 36082 ft | 472 kts | 174° |
| 2026-05-07 17:44 | 44.55585 | -121.70207 | 36091 ft | 472 kts | 174° |
| 2026-05-07 17:44 | 44.49108 | -121.68749 | 36089 ft | 471 kts | 174° |
| 2026-05-07 17:45 | 44.42637 | -121.67294 | 36078 ft | 471 kts | 174° |
| 2026-05-07 17:45 | 44.36153 | -121.65841 | 36086 ft | 472 kts | 174° |
| 2026-05-07 17:46 | 44.29677 | -121.64351 | 36082 ft | 472 kts | 174° |
| 2026-05-07 17:46 | 44.23197 | -121.62846 | 36084 ft | 472 kts | 174° |
| 2026-05-07 17:47 | 44.16715 | -121.61345 | 36091 ft | 472 kts | 174° |
| 2026-05-07 17:47 | 44.10240 | -121.59849 | 36086 ft | 471 kts | 174° |
| 2026-05-07 17:48 | 44.03784 | -121.58361 | 36090 ft | 471 kts | 174° |
| 2026-05-07 17:48 | 43.97309 | -121.56871 | 36086 ft | 472 kts | 174° |
| 2026-05-07 17:49 | 43.90834 | -121.55384 | 36084 ft | 472 kts | 174° |
| 2026-05-07 17:49 | 43.84356 | -121.53901 | 36071 ft | 472 kts | 174° |
| 2026-05-07 17:50 | 43.77877 | -121.52421 | 36072 ft | 472 kts | 174° |
| 2026-05-07 17:50 | 43.71397 | -121.50943 | 36069 ft | 472 kts | 174° |
| 2026-05-07 17:51 | 43.64923 | -121.49470 | 36060 ft | 470 kts | 173° |
| 2026-05-07 17:51 | 43.58475 | -121.48006 | 36073 ft | 470 kts | 173° |
| 2026-05-07 17:52 | 43.52024 | -121.46545 | 36072 ft | 470 kts | 174° |
| 2026-05-07 17:52 | 43.45569 | -121.45086 | 36067 ft | 470 kts | 173° |
| 2026-05-07 17:53 | 43.39116 | -121.43631 | 36071 ft | 470 kts | 173° |
| 2026-05-07 17:53 | 43.32666 | -121.42179 | 36066 ft | 470 kts | 173° |
| 2026-05-07 17:54 | 43.26216 | -121.40730 | 36069 ft | 470 kts | 173° |
| 2026-05-07 17:54 | 43.19776 | -121.39287 | 36073 ft | 468 kts | 173° |
| 2026-05-07 17:55 | 43.13339 | -121.37848 | 36073 ft | 469 kts | 173° |
| 2026-05-07 17:55 | 43.06947 | -121.36422 | 36074 ft | 469 kts | 173° |
| 2026-05-07 17:56 | 43.00509 | -121.34988 | 36073 ft | 469 kts | 173° |
| 2026-05-07 17:56 | 42.94065 | -121.33556 | 36076 ft | 469 kts | 173° |
| 2026-05-07 17:57 | 42.88667 | -121.32359 | 36078 ft | 469 kts | 173° |
| 2026-05-07 17:57 | 42.81180 | -121.30702 | 36086 ft | 469 kts | 173° |
| 2026-05-07 17:58 | 42.74749 | -121.29282 | 36084 ft | 467 kts | 173° |
| 2026-05-07 17:58 | 42.68324 | -121.27867 | 36090 ft | 468 kts | 173° |
| 2026-05-07 17:59 | 42.64175 | -121.26954 | 36093 ft | 468 kts | 173° |
| 2026-05-07 18:18 | 42.61765 | -121.26426 | 36058 ft | 467 kts | 172° |
| 2026-05-07 18:18 | 42.55365 | -121.25021 | 36101 ft | 467 kts | 173° |
| 2026-05-07 18:19 | 42.48922 | -121.23610 | 36094 ft | 469 kts | 173° |
| 2026-05-07 18:19 | 42.42477 | -121.22202 | 36097 ft | 469 kts | 173° |
| 2026-05-07 18:20 | 42.36042 | -121.20799 | 36094 ft | 468 kts | 173° |
| 2026-05-07 18:20 | 42.29617 | -121.19401 | 36099 ft | 468 kts | 173° |
| 2026-05-07 18:21 | 42.23186 | -121.18005 | 36101 ft | 468 kts | 173° |
| 2026-05-07 18:21 | 42.16756 | -121.16611 | 36093 ft | 468 kts | 173° |
| 2026-05-07 18:22 | 42.10373 | -121.15231 | 36095 ft | 468 kts | 172° |
| 2026-05-07 18:22 | 42.03899 | -121.13834 | 36080 ft | 468 kts | 172° |
| 2026-05-07 18:23 | 41.97519 | -121.12460 | 36088 ft | 467 kts | 172° |
| 2026-05-07 18:23 | 41.91113 | -121.11083 | 36087 ft | 466 kts | 172° |
| 2026-05-07 18:24 | 41.84699 | -121.09708 | 36078 ft | 467 kts | 172° |
| 2026-05-07 18:24 | 41.78292 | -121.08336 | 36080 ft | 467 kts | 172° |
| 2026-05-07 18:25 | 41.71875 | -121.06965 | 36076 ft | 467 kts | 172° |
| 2026-05-07 18:25 | 41.65460 | -121.05598 | 36081 ft | 467 kts | 172° |
| 2026-05-07 18:26 | 41.59052 | -121.04235 | 36083 ft | 465 kts | 172° |
| 2026-05-07 18:26 | 41.53700 | -121.03098 | 36073 ft | 465 kts | 172° |
| 2026-05-07 18:27 | 41.47311 | -121.01744 | 36083 ft | 465 kts | 172° |
| 2026-05-07 18:27 | 41.40915 | -121.00391 | 36083 ft | 465 kts | 172° |
| 2026-05-07 18:28 | 41.34526 | -120.99043 | 36088 ft | 466 kts | 172° |
| 2026-05-07 18:28 | 41.28110 | -120.97690 | 36084 ft | 466 kts | 172° |
| 2026-05-07 18:29 | 41.21710 | -120.96344 | 36089 ft | 465 kts | 172° |
| 2026-05-07 18:29 | 41.15328 | -120.95004 | 36091 ft | 464 kts | 172° |
| 2026-05-07 18:30 | 41.08947 | -120.93667 | 36095 ft | 464 kts | 172° |
| 2026-05-07 18:30 | 41.02559 | -120.92331 | 36098 ft | 465 kts | 172° |
| 2026-05-07 18:31 | 40.96138 | -120.91685 | 36109 ft | 463 kts | 178° |
| 2026-05-07 18:31 | 40.89707 | -120.91203 | 36104 ft | 463 kts | 178° |
| 2026-05-07 18:32 | 40.83266 | -120.90686 | 36094 ft | 463 kts | 177° |
| 2026-05-07 18:32 | 40.76835 | -120.90168 | 36095 ft | 463 kts | 178° |
| 2026-05-07 18:33 | 40.70398 | -120.89650 | 36089 ft | 463 kts | 178° |
| 2026-05-07 18:33 | 40.64006 | -120.89138 | 36092 ft | 463 kts | 178° |
| 2026-05-07 18:34 | 40.57523 | -120.88619 | 36100 ft | 465 kts | 178° |
| 2026-05-07 18:34 | 40.51066 | -120.88102 | 36120 ft | 464 kts | 178° |
| 2026-05-07 18:35 | 40.44664 | -120.87592 | 36126 ft | 463 kts | 178° |
| 2026-05-07 18:35 | 40.38221 | -120.87078 | 36132 ft | 464 kts | 178° |
| 2026-05-07 18:36 | 40.31738 | -120.86564 | 36132 ft | 464 kts | 178° |
| 2026-05-07 18:36 | 40.25328 | -120.86055 | 36113 ft | 465 kts | 178° |
| 2026-05-07 18:37 | 40.18853 | -120.85543 | 36105 ft | 466 kts | 178° |
| 2026-05-07 18:37 | 40.12391 | -120.85032 | 36099 ft | 466 kts | 178° |
| 2026-05-07 18:38 | 40.05920 | -120.84521 | 36083 ft | 465 kts | 178° |
| 2026-05-07 18:38 | 39.99472 | -120.84015 | 36084 ft | 465 kts | 177° |
| 2026-05-07 18:39 | 39.93022 | -120.83507 | 36086 ft | 464 kts | 177° |
| 2026-05-07 18:39 | 39.86566 | -120.83001 | 36084 ft | 465 kts | 177° |
| 2026-05-07 18:40 | 39.80103 | -120.82496 | 36083 ft | 466 kts | 177° |
| 2026-05-07 18:40 | 39.73652 | -120.81991 | 36098 ft | 464 kts | 177° |
| 2026-05-07 18:41 | 39.67198 | -120.81488 | 36089 ft | 464 kts | 177° |
| 2026-05-07 18:41 | 39.60764 | -120.80988 | 36094 ft | 462 kts | 177° |
| 2026-05-07 18:42 | 39.54346 | -120.80488 | 36107 ft | 462 kts | 177° |
| 2026-05-07 18:42 | 39.47923 | -120.79987 | 36097 ft | 462 kts | 177° |
| 2026-05-07 18:43 | 39.41526 | -120.79495 | 36094 ft | 461 kts | 177° |
| 2026-05-07 18:43 | 39.35108 | -120.78998 | 36281 ft | 462 kts | 177° |
| 2026-05-07 18:44 | 39.28692 | -120.78504 | 36284 ft | 461 kts | 177° |
| 2026-05-07 18:44 | 39.22289 | -120.78011 | 36283 ft | 460 kts | 177° |
| 2026-05-07 18:45 | 39.15899 | -120.77520 | 36257 ft | 460 kts | 177° |
| 2026-05-07 18:45 | 39.09515 | -120.77030 | 36221 ft | 459 kts | 177° |
| 2026-05-07 18:46 | 39.03147 | -120.76543 | 36169 ft | 459 kts | 177° |
| 2026-05-07 18:46 | 38.96767 | -120.76056 | 36142 ft | 459 kts | 177° |
| 2026-05-07 18:47 | 38.90397 | -120.75569 | 36175 ft | 458 kts | 176° |
| 2026-05-07 18:47 | 38.84037 | -120.75085 | 36198 ft | 458 kts | 177° |
| 2026-05-07 18:48 | 38.77681 | -120.74602 | 36208 ft | 458 kts | 177° |
| 2026-05-07 18:48 | 38.71325 | -120.74119 | 36206 ft | 457 kts | 176° |
| 2026-05-07 18:49 | 38.64979 | -120.73639 | 36121 ft | 457 kts | 177° |
| 2026-05-07 18:49 | 38.58628 | -120.73159 | 36117 ft | 457 kts | 176° |
| 2026-05-07 18:50 | 38.52274 | -120.72679 | 36127 ft | 457 kts | 176° |
| 2026-05-07 18:50 | 38.45928 | -120.72201 | 36129 ft | 457 kts | 176° |
| 2026-05-07 18:51 | 38.39582 | -120.71724 | 36135 ft | 457 kts | 177° |
| 2026-05-07 18:51 | 38.33243 | -120.71248 | 36136 ft | 457 kts | 176° |
| 2026-05-07 18:52 | 38.26900 | -120.70772 | 36136 ft | 457 kts | 176° |
| 2026-05-07 18:52 | 38.20557 | -120.70298 | 36141 ft | 457 kts | 177° |
| 2026-05-07 18:53 | 38.14205 | -120.69824 | 36135 ft | 457 kts | 176° |
| 2026-05-07 18:53 | 38.07856 | -120.69350 | 36134 ft | 457 kts | 176° |
| 2026-05-07 18:54 | 38.01517 | -120.68878 | 36142 ft | 457 kts | 176° |
| 2026-05-07 18:54 | 37.98341 | -120.68642 | 36274 ft | 457 kts | 176° |